Time;durP1;ratioP1;P1;durP2;ratioP2;P2;SDS_P1;SDS_P2;PMS_P1;PMS_P2;Temp;Humidity;BMP_temperature;BMP_pressure;BME280_temperature;BME280_humidity;BME280_pressure;Samples;Min_cycle;Max_cycle;Signal;HPM_P1;HPM_P2
2021/08/14 00:01:23;;;;;;;26.20;5.82;;;15.40;99.90;;;;;;5046692;28;20048;-82
2021/08/14 00:03:48;;;;;;;21.48;5.97;;;15.30;99.90;;;;;;5036678;28;20037;-82
2021/08/14 00:06:16;;;;;;;21.70;5.80;;;15.30;99.90;;;;;;5039324;28;20456;-83
2021/08/14 00:08:44;;;;;;;28.02;6.47;;;15.30;99.90;;;;;;5043624;28;20041;-82
2021/08/14 00:11:11;;;;;;;23.10;5.53;;;15.30;99.90;;;;;;5057304;28;20045;-82
2021/08/14 00:13:36;;;;;;;26.02;5.80;;;15.30;99.90;;;;;;5042092;28;20051;-82
2021/08/14 00:16:02;;;;;;;26.42;6.18;;;15.30;99.90;;;;;;5041339;28;20108;-82
2021/08/14 00:18:30;;;;;;;20.02;5.72;;;15.30;99.90;;;;;;5043179;28;20460;-81
2021/08/14 00:20:56;;;;;;;26.00;6.30;;;15.30;99.90;;;;;;5050758;28;20052;-83
2021/08/14 00:23:22;;;;;;;31.63;6.10;;;15.30;99.90;;;;;;5044731;28;20065;-83
2021/08/14 00:25:48;;;;;;;21.42;5.65;;;15.30;99.90;;;;;;5050416;28;20464;-82
2021/08/14 00:28:15;;;;;;;18.10;5.07;;;15.30;99.90;;;;;;5042371;28;20033;-82
2021/08/14 00:30:41;;;;;;;19.40;5.55;;;15.20;99.90;;;;;;5052554;28;20045;-78
2021/08/14 00:33:07;;;;;;;21.95;6.70;;;15.20;99.90;;;;;;5052372;28;20060;-78
2021/08/14 00:35:32;;;;;;;24.67;6.43;;;15.20;99.90;;;;;;5053016;28;20471;-81
2021/08/14 00:37:59;;;;;;;23.35;5.95;;;15.10;99.90;;;;;;5047504;28;20453;-81
2021/08/14 00:40:25;;;;;;;24.45;6.35;;;15.10;99.90;;;;;;5062093;28;20051;-81
2021/08/14 00:42:50;;;;;;;19.60;5.95;;;15.10;99.90;;;;;;5040661;28;20415;-81
2021/08/14 00:45:16;;;;;;;24.60;6.28;;;15.20;99.90;;;;;;5050391;28;20446;-81
2021/08/14 00:47:43;;;;;;;23.85;5.88;;;15.10;99.90;;;;;;5048622;28;20056;-81
2021/08/14 00:50:10;;;;;;;26.25;5.88;;;15.20;99.90;;;;;;5048203;28;20425;-81
2021/08/14 00:52:36;;;;;;;20.38;5.78;;;15.10;99.90;;;;;;5039605;28;20480;-81
2021/08/14 00:55:03;;;;;;;25.10;6.00;;;15.10;99.90;;;;;;5046004;28;20055;-81
2021/08/14 00:57:28;;;;;;;25.92;6.22;;;15.10;99.90;;;;;;5053103;28;20349;-81
2021/08/14 00:59:55;;;;;;;26.70;6.45;;;15.10;99.90;;;;;;5050813;28;20040;-80
2021/08/14 01:02:21;;;;;;;19.38;6.15;;;15.10;99.90;;;;;;5014802;28;20052;-81
2021/08/14 01:04:48;;;;;;;23.27;5.93;;;15.10;99.90;;;;;;5043611;28;20594;-81
2021/08/14 01:07:15;;;;;;;21.65;5.90;;;15.00;99.90;;;;;;5043404;28;20061;-81
2021/08/14 01:09:42;;;;;;;25.95;6.35;;;15.00;99.90;;;;;;5052650;28;20405;-81
2021/08/14 01:12:08;;;;;;;17.48;5.57;;;15.00;99.90;;;;;;5049002;28;20083;-80
2021/08/14 01:14:36;;;;;;;27.77;5.88;;;15.00;99.90;;;;;;5045040;28;20152;-81
2021/08/14 01:17:03;;;;;;;22.95;5.95;;;14.90;99.90;;;;;;5043150;28;20040;-81
2021/08/14 01:19:31;;;;;;;30.00;5.85;;;15.00;99.90;;;;;;5057637;28;20053;-81
2021/08/14 01:21:58;;;;;;;25.85;5.65;;;15.00;99.90;;;;;;5036386;28;20116;-81
2021/08/14 01:24:24;;;;;;;18.45;5.43;;;15.00;99.90;;;;;;5044515;28;20419;-80
2021/08/14 01:26:58;;;;;;;20.40;5.68;;;14.90;99.90;;;;;;5049360;28;20063;-80
2021/08/14 01:29:24;;;;;;;21.33;6.22;;;14.90;99.90;;;;;;5044507;28;20467;-79
2021/08/14 01:31:50;;;;;;;21.83;5.53;;;14.90;99.90;;;;;;5046597;28;20064;-80
2021/08/14 01:34:21;;;;;;;24.95;5.68;;;14.90;99.90;;;;;;5046580;28;20473;-80
2021/08/14 01:36:50;;;;;;;31.00;5.88;;;14.90;99.90;;;;;;5043725;28;20053;-80
2021/08/14 01:39:17;;;;;;;20.08;5.95;;;15.00;99.90;;;;;;5056830;28;20046;-79
2021/08/14 01:41:57;;;;;;;23.33;6.15;;;15.00;99.90;;;;;;5047447;28;20036;-80
2021/08/14 01:44:24;;;;;;;22.63;5.57;;;15.10;99.90;;;;;;5041284;28;20408;-79
2021/08/14 01:46:49;;;;;;;26.95;7.22;;;15.10;99.90;;;;;;5044272;28;20341;-80
2021/08/14 01:49:15;;;;;;;27.85;6.32;;;15.10;99.90;;;;;;5057138;28;20052;-79
2021/08/14 01:51:41;;;;;;;28.02;6.30;;;15.10;99.90;;;;;;5057335;28;20045;-80
2021/08/14 01:54:07;;;;;;;24.40;6.32;;;15.20;99.90;;;;;;5055266;28;20046;-80
2021/08/14 01:56:34;;;;;;;32.65;7.07;;;15.30;99.90;;;;;;5045291;28;20051;-80
2021/08/14 01:59:01;;;;;;;28.38;6.35;;;15.30;99.90;;;;;;5042583;28;20449;-80
2021/08/14 02:01:28;;;;;;;28.23;7.03;;;15.30;99.90;;;;;;5063090;28;20039;-80
2021/08/14 02:03:54;;;;;;;27.83;7.20;;;15.40;99.90;;;;;;5039900;28;20055;-80
2021/08/14 02:06:21;;;;;;;28.88;6.53;;;15.40;99.90;;;;;;5041840;28;22328;-80
2021/08/14 02:08:47;;;;;;;29.38;7.07;;;15.40;99.90;;;;;;5044263;28;21061;-80
2021/08/14 02:11:25;;;;;;;26.27;6.70;;;15.50;99.90;;;;;;5040068;28;20049;-80
2021/08/14 02:13:51;;;;;;;33.30;7.28;;;15.50;99.90;;;;;;5049983;28;20063;-80
2021/08/14 02:16:18;;;;;;;25.23;6.90;;;15.50;99.90;;;;;;5030722;28;20049;-79
2021/08/14 02:18:44;;;;;;;24.30;6.57;;;15.60;99.90;;;;;;5060753;28;20321;-80
2021/08/14 02:21:11;;;;;;;30.88;7.53;;;15.60;99.90;;;;;;5042802;28;20116;-80
2021/08/14 02:23:37;;;;;;;29.08;6.50;;;15.60;99.90;;;;;;5057645;28;20078;-80
2021/08/14 02:26:04;;;;;;;24.30;6.70;;;15.60;99.90;;;;;;5044565;28;20056;-80
2021/08/14 02:28:30;;;;;;;30.60;7.00;;;15.70;99.90;;;;;;5042333;28;20041;-80
2021/08/14 02:30:57;;;;;;;25.25;6.68;;;15.70;99.90;;;;;;5058217;28;20083;-80
2021/08/14 02:33:23;;;;;;;26.90;7.05;;;15.70;99.90;;;;;;5043094;28;20068;-80
2021/08/14 02:35:52;;;;;;;27.40;6.82;;;15.70;99.90;;;;;;5036629;28;20373;-80
2021/08/14 02:38:18;;;;;;;26.98;6.55;;;15.70;99.90;;;;;;5044487;28;20048;-80
2021/08/14 02:40:48;;;;;;;28.02;6.57;;;15.70;99.90;;;;;;5042257;28;20047;-80
2021/08/14 02:43:15;;;;;;;32.78;7.45;;;15.60;99.90;;;;;;5056557;28;20491;-80
2021/08/14 02:45:41;;;;;;;29.30;7.28;;;15.70;99.90;;;;;;5042729;28;20107;-80
2021/08/14 02:48:07;;;;;;;25.80;7.22;;;15.70;99.90;;;;;;5043943;28;20075;-80
2021/08/14 02:50:34;;;;;;;25.63;7.22;;;15.70;99.90;;;;;;5038410;28;20045;-80
2021/08/14 02:52:59;;;;;;;21.52;6.78;;;15.70;99.90;;;;;;5038698;28;20045;-80
2021/08/14 02:55:25;;;;;;;25.65;7.38;;;15.70;99.90;;;;;;5056724;28;20471;-79
2021/08/14 02:57:51;;;;;;;34.70;7.43;;;15.70;99.90;;;;;;5041928;28;20055;-80
2021/08/14 03:00:18;;;;;;;30.48;7.72;;;15.70;99.90;;;;;;5042087;28;20067;-80
2021/08/14 03:02:44;;;;;;;26.98;7.43;;;15.70;99.90;;;;;;5043969;28;20142;-80
2021/08/14 03:05:11;;;;;;;28.88;7.07;;;15.70;99.90;;;;;;5040458;28;20220;-80
2021/08/14 03:07:36;;;;;;;27.15;7.63;;;15.70;99.90;;;;;;5057294;28;20043;-80
2021/08/14 03:10:04;;;;;;;27.98;7.90;;;15.70;99.90;;;;;;5042836;28;20029;-80
2021/08/14 03:12:29;;;;;;;29.23;8.05;;;15.70;99.90;;;;;;5041178;28;20052;-79
2021/08/14 03:14:55;;;;;;;32.97;7.55;;;15.70;99.90;;;;;;5043578;28;20077;-80
2021/08/14 03:17:21;;;;;;;28.10;7.60;;;15.60;99.90;;;;;;5044655;28;20036;-80
2021/08/14 03:19:47;;;;;;;28.02;7.80;;;15.60;99.90;;;;;;5042688;28;21635;-80
2021/08/14 03:22:12;;;;;;;30.92;8.32;;;15.50;99.90;;;;;;5037488;28;20037;-80
2021/08/14 03:24:39;;;;;;;25.27;8.20;;;15.60;99.90;;;;;;5040149;28;20458;-79
2021/08/14 03:27:06;;;;;;;32.70;7.95;;;15.60;99.90;;;;;;5044675;28;20104;-79
2021/08/14 03:29:33;;;;;;;32.58;8.35;;;15.60;99.90;;;;;;5037226;28;20162;-80
2021/08/14 03:31:58;;;;;;;31.98;8.77;;;15.60;99.90;;;;;;5043558;28;20040;-80
2021/08/14 03:34:24;;;;;;;28.15;7.82;;;15.60;99.90;;;;;;5040653;28;20044;-80
2021/08/14 03:36:50;;;;;;;28.08;7.53;;;15.60;99.90;;;;;;5038037;28;20132;-80
2021/08/14 03:39:17;;;;;;;31.45;7.63;;;15.60;99.90;;;;;;5058652;28;20033;-79
2021/08/14 03:41:44;;;;;;;31.55;8.25;;;15.70;99.90;;;;;;5060264;28;20040;-80
2021/08/14 03:44:10;;;;;;;31.50;8.18;;;15.60;99.90;;;;;;5041092;28;20891;-80
2021/08/14 03:46:36;;;;;;;30.88;8.30;;;15.60;99.90;;;;;;5059402;28;20036;-80
2021/08/14 03:49:02;;;;;;;26.00;7.43;;;15.60;99.90;;;;;;5038661;28;20025;-80
2021/08/14 03:51:27;;;;;;;28.58;8.25;;;15.60;99.90;;;;;;5042644;28;20144;-80
2021/08/14 03:53:53;;;;;;;27.02;8.27;;;15.60;99.90;;;;;;5039694;28;20045;-80
2021/08/14 03:56:19;;;;;;;30.38;8.70;;;15.60;99.90;;;;;;5033049;28;20051;-80
2021/08/14 03:58:44;;;;;;;34.30;8.13;;;15.60;99.90;;;;;;5041537;28;20098;-80
2021/08/14 04:01:10;;;;;;;35.45;7.90;;;15.60;99.90;;;;;;5041026;28;20403;-80
2021/08/14 04:03:36;;;;;;;40.30;8.25;;;15.60;99.90;;;;;;5044907;28;20556;-80
2021/08/14 04:06:02;;;;;;;33.22;8.38;;;15.60;99.90;;;;;;5040898;28;20041;-80
2021/08/14 04:08:28;;;;;;;32.97;9.10;;;15.60;99.90;;;;;;5038807;28;20569;-80
2021/08/14 04:10:53;;;;;;;37.78;8.82;;;15.60;99.90;;;;;;5040972;28;20444;-79
2021/08/14 04:13:19;;;;;;;45.45;8.70;;;15.60;99.90;;;;;;5041296;28;20121;-80
2021/08/14 04:15:45;;;;;;;30.90;8.93;;;15.50;99.90;;;;;;5041009;28;20043;-79
2021/08/14 04:18:11;;;;;;;34.55;8.18;;;15.60;99.90;;;;;;5037593;28;20487;-79
2021/08/14 04:20:37;;;;;;;30.38;8.45;;;15.60;99.90;;;;;;5044739;28;20103;-80
2021/08/14 04:23:03;;;;;;;30.38;7.97;;;15.60;99.90;;;;;;5054556;28;20091;-80
2021/08/14 04:25:29;;;;;;;37.20;9.45;;;15.60;99.90;;;;;;5042999;28;20036;-80
2021/08/14 04:27:55;;;;;;;29.88;8.20;;;15.70;99.90;;;;;;5041195;28;20029;-80
2021/08/14 04:30:22;;;;;;;32.60;8.18;;;15.70;99.90;;;;;;5042437;28;20083;-80
2021/08/14 04:32:49;;;;;;;36.63;8.43;;;15.70;99.90;;;;;;5043204;28;20041;-80
2021/08/14 04:35:15;;;;;;;32.28;8.25;;;15.70;99.90;;;;;;5041547;28;20503;-80
2021/08/14 04:37:42;;;;;;;29.15;8.20;;;15.70;99.90;;;;;;5039772;28;20460;-80
2021/08/14 04:40:11;;;;;;;30.48;8.43;;;15.70;99.90;;;;;;5038530;28;20112;-80
2021/08/14 04:42:38;;;;;;;29.92;8.27;;;15.70;99.90;;;;;;5043103;28;20043;-79
2021/08/14 04:45:05;;;;;;;32.75;8.32;;;15.70;99.90;;;;;;5029968;28;20075;-80
2021/08/14 04:47:39;;;;;;;;;;;15.80;99.90;;;;;;5039630;28;20032;-80
2021/08/14 04:50:07;;;;;;;31.38;8.55;;;15.80;99.90;;;;;;5040286;28;19921;-79
2021/08/14 04:52:34;;;;;;;38.03;8.13;;;15.70;99.90;;;;;;5042726;28;20030;-80
2021/08/14 04:55:00;;;;;;;25.75;7.47;;;15.80;99.90;;;;;;5039204;28;20116;-80
2021/08/14 04:57:25;;;;;;;31.52;8.10;;;15.80;99.90;;;;;;5043539;28;20037;-79
2021/08/14 04:59:51;;;;;;;29.45;7.90;;;15.80;99.90;;;;;;5038407;28;20040;-79
2021/08/14 05:02:18;;;;;;;27.85;8.55;;;15.90;99.90;;;;;;5055796;28;20527;-80
2021/08/14 05:04:46;;;;;;;29.63;7.47;;;15.90;99.90;;;;;;5045055;28;20084;-79
2021/08/14 05:07:12;;;;;;;29.55;8.32;;;15.90;99.90;;;;;;5057255;28;20484;-79
2021/08/14 05:09:38;;;;;;;35.70;8.48;;;15.90;99.90;;;;;;5044914;28;20029;-80
2021/08/14 05:12:05;;;;;;;31.00;7.60;;;16.00;99.90;;;;;;5043046;28;20442;-80
2021/08/14 05:14:35;;;;;;;31.83;8.25;;;16.10;99.90;;;;;;5058397;28;20048;-80
2021/08/14 05:17:02;;;;;;;37.22;8.45;;;16.00;99.90;;;;;;5021064;28;20078;-81
2021/08/14 05:19:29;;;;;;;32.10;8.60;;;16.10;99.90;;;;;;5042752;28;20060;-80
2021/08/14 05:21:55;;;;;;;35.75;8.15;;;16.10;99.90;;;;;;5026484;28;20053;-80
2021/08/14 05:24:21;;;;;;;36.42;8.90;;;16.10;99.90;;;;;;5038472;28;20025;-80
2021/08/14 05:26:46;;;;;;;35.13;8.80;;;16.20;99.90;;;;;;5056322;28;20415;-80
2021/08/14 05:29:13;;;;;;;32.63;8.45;;;16.30;99.90;;;;;;5059392;28;20134;-81
2021/08/14 05:31:41;;;;;;;29.05;8.20;;;16.30;99.90;;;;;;5028895;28;20053;-82
2021/08/14 05:34:07;;;;;;;31.05;8.07;;;16.50;99.90;;;;;;5044514;28;20362;-79
2021/08/14 05:36:33;;;;;;;37.13;7.88;;;16.40;99.90;;;;;;5046250;28;20045;-79
2021/08/14 05:38:59;;;;;;;34.95;8.30;;;16.50;99.90;;;;;;5044687;28;20036;-80
2021/08/14 05:41:25;;;;;;;27.88;7.40;;;16.60;99.90;;;;;;5046813;28;20041;-80
2021/08/14 05:43:55;;;;;;;26.75;7.90;;;16.70;99.90;;;;;;5042703;28;20056;-82
2021/08/14 05:46:21;;;;;;;33.90;8.25;;;16.70;99.90;;;;;;5043227;28;20128;-78
2021/08/14 05:48:46;;;;;;;31.40;8.32;;;16.80;99.90;;;;;;5043633;28;20124;-80
2021/08/14 05:51:13;;;;;;;31.92;8.40;;;16.80;99.90;;;;;;5042451;28;20051;-80
2021/08/14 05:53:39;;;;;;;29.60;7.78;;;16.80;99.90;;;;;;5060790;28;20203;-79
2021/08/14 05:56:05;;;;;;;30.80;7.65;;;16.90;99.90;;;;;;5045526;28;20621;-79
2021/08/14 05:58:32;;;;;;;28.40;8.23;;;17.00;99.90;;;;;;5060778;28;20033;-79
2021/08/14 06:00:58;;;;;;;27.20;7.00;;;17.10;99.90;;;;;;5052397;28;20037;-80
2021/08/14 06:03:24;;;;;;;21.23;6.80;;;17.30;99.90;;;;;;5045939;28;20056;-81
2021/08/14 06:05:50;;;;;;;30.13;7.43;;;17.40;99.90;;;;;;5047240;28;20104;-79
2021/08/14 06:08:16;;;;;;;26.02;6.72;;;17.60;99.90;;;;;;5040208;28;20116;-78
2021/08/14 06:10:42;;;;;;;27.13;7.18;;;17.80;99.90;;;;;;5046570;28;20098;-81
2021/08/14 06:13:08;;;;;;;28.40;6.97;;;17.90;99.90;;;;;;5047141;28;20049;-81
2021/08/14 06:15:34;;;;;;;19.15;6.97;;;18.10;99.90;;;;;;5043707;28;20529;-80
2021/08/14 06:17:59;;;;;;;22.65;7.32;;;18.10;99.90;;;;;;5043036;28;20365;-78
2021/08/14 06:20:27;;;;;;;25.25;7.93;;;18.00;99.90;;;;;;5037324;28;20053;-81
2021/08/14 06:22:53;;;;;;;28.55;7.50;;;18.00;99.90;;;;;;5037714;28;20038;-80
2021/08/14 06:25:20;;;;;;;36.38;8.18;;;17.90;99.90;;;;;;5042119;28;20526;-81
2021/08/14 06:27:46;;;;;;;27.38;7.75;;;17.90;99.90;;;;;;5045437;28;20141;-80
2021/08/14 06:30:12;;;;;;;36.65;8.15;;;17.90;99.90;;;;;;5044464;28;20451;-80
2021/08/14 06:32:39;;;;;;;34.67;8.88;;;18.00;99.90;;;;;;5040797;28;20035;-80
2021/08/14 06:35:06;;;;;;;30.23;8.73;;;18.00;99.90;;;;;;5044426;28;20124;-80
2021/08/14 06:37:41;;;;;;;31.02;7.97;;;18.10;99.90;;;;;;5043133;28;20421;-80
2021/08/14 06:40:08;;;;;;;32.15;8.75;;;18.10;99.90;;;;;;5040340;28;20047;-78
2021/08/14 06:42:34;;;;;;;25.30;7.93;;;18.20;99.90;;;;;;5046734;28;20515;-78
2021/08/14 06:45:01;;;;;;;39.17;9.27;;;18.30;99.90;;;;;;5047244;28;20041;-77
2021/08/14 06:47:27;;;;;;;31.77;8.20;;;18.30;99.90;;;;;;5046292;28;20044;-79
2021/08/14 06:49:53;;;;;;;28.30;7.85;;;18.40;99.90;;;;;;5026692;28;20041;-79
2021/08/14 06:52:18;;;;;;;31.88;7.93;;;18.40;99.90;;;;;;5036985;28;20460;-80
2021/08/14 06:54:47;;;;;;;29.38;8.65;;;18.40;99.90;;;;;;5059058;28;20045;-80
2021/08/14 06:57:13;;;;;;;32.15;8.23;;;18.40;99.90;;;;;;5043299;28;20041;-80
2021/08/14 06:59:38;;;;;;;32.83;8.75;;;18.50;99.90;;;;;;5044353;28;20094;-80
2021/08/14 07:02:04;;;;;;;28.90;7.50;;;18.70;99.90;;;;;;5022920;28;20377;-79
2021/08/14 07:04:33;;;;;;;33.65;8.88;;;18.70;99.90;;;;;;5042391;28;20551;-79
2021/08/14 07:06:59;;;;;;;34.45;9.18;;;18.80;99.90;;;;;;5041868;28;20048;-79
2021/08/14 07:09:25;;;;;;;32.67;8.27;;;18.80;99.90;;;;;;5056364;28;20048;-79
2021/08/14 07:11:51;;;;;;;33.47;7.80;;;18.90;99.90;;;;;;5029790;28;20037;-79
2021/08/14 07:14:17;;;;;;;27.40;8.07;;;18.90;99.90;;;;;;5054914;28;20051;-79
2021/08/14 07:16:43;;;;;;;28.70;8.02;;;18.90;99.90;;;;;;5044588;28;20036;-81
2021/08/14 07:19:08;;;;;;;27.55;7.72;;;18.70;99.90;;;;;;5039352;28;20037;-78
2021/08/14 07:21:34;;;;;;;30.08;7.80;;;18.90;99.90;;;;;;5043574;28;20045;-79
2021/08/14 07:24:00;;;;;;;34.25;8.35;;;19.00;99.90;;;;;;5044345;28;20048;-78
2021/08/14 07:26:25;;;;;;;28.35;7.40;;;19.00;99.90;;;;;;5042392;28;20126;-77
2021/08/14 07:28:51;;;;;;;37.42;8.50;;;19.00;99.90;;;;;;5041828;28;20037;-77
2021/08/14 07:31:17;;;;;;;31.25;7.47;;;19.00;99.90;;;;;;5057161;28;20084;-77
2021/08/14 07:33:43;;;;;;;22.15;6.30;;;19.00;99.90;;;;;;5059524;28;20035;-79
2021/08/14 07:36:09;;;;;;;25.88;6.65;;;19.10;99.90;;;;;;5042860;28;20406;-79
2021/08/14 07:38:35;;;;;;;26.33;6.95;;;19.10;99.90;;;;;;5034597;28;20068;-79
2021/08/14 07:41:01;;;;;;;33.88;7.15;;;19.10;99.90;;;;;;5053497;28;20081;-78
2021/08/14 07:43:27;;;;;;;29.73;7.18;;;19.10;99.90;;;;;;5044038;28;20059;-80
2021/08/14 07:45:54;;;;;;;27.67;7.03;;;19.10;99.90;;;;;;5038184;28;20059;-80
2021/08/14 07:48:20;;;;;;;25.88;6.60;;;19.20;99.90;;;;;;5054080;28;20397;-79
2021/08/14 07:50:46;;;;;;;31.65;6.30;;;19.30;99.90;;;;;;5041478;28;20110;-80
2021/08/14 07:53:12;;;;;;;25.90;6.70;;;19.20;99.90;;;;;;5045254;28;20388;-80
2021/08/14 07:55:37;;;;;;;27.60;6.75;;;19.30;99.90;;;;;;5040630;28;20033;-80
2021/08/14 07:58:13;;;;;;;27.98;7.20;;;19.40;99.90;;;;;;5040967;28;20132;-80
2021/08/14 08:00:39;;;;;;;25.15;6.53;;;19.40;99.90;;;;;;5037349;28;20041;-80
2021/08/14 08:03:09;;;;;;;27.05;7.18;;;19.50;99.90;;;;;;5044099;28;20070;-80
2021/08/14 08:05:35;;;;;;;27.50;6.78;;;19.60;99.90;;;;;;5038993;28;20044;-79
2021/08/14 08:08:02;;;;;;;32.80;6.95;;;19.60;99.90;;;;;;5040255;28;20068;-79
2021/08/14 08:10:28;;;;;;;23.95;6.55;;;19.70;99.90;;;;;;5056805;28;20492;-79
2021/08/14 08:12:54;;;;;;;27.40;6.85;;;19.80;99.90;;;;;;5043879;28;20072;-79
2021/08/14 08:15:21;;;;;;;23.05;5.55;;;19.90;99.90;;;;;;5055793;28;20474;-82
2021/08/14 08:17:47;;;;;;;23.77;5.93;;;19.90;99.90;;;;;;5021538;28;20069;-80
2021/08/14 08:20:15;;;;;;;23.35;5.47;;;20.10;99.90;;;;;;5036522;28;20080;-80
2021/08/14 08:22:41;;;;;;;20.08;5.50;;;20.30;99.90;;;;;;5035067;28;20362;-81
2021/08/14 08:25:08;;;;;;;25.30;6.53;;;20.40;99.90;;;;;;5042715;28;20052;-80
2021/08/14 08:27:42;;;;;;;22.02;5.53;;;20.70;99.90;;;;;;5064207;28;20053;-81
2021/08/14 08:30:10;;;;;;;18.98;5.75;;;20.80;99.90;;;;;;5033247;28;20128;-81
2021/08/14 08:32:36;;;;;;;29.20;5.97;;;20.90;99.90;;;;;;5031288;28;20177;-81
2021/08/14 08:35:03;;;;;;;22.05;5.20;;;21.20;99.90;;;;;;5045604;28;20041;-81
2021/08/14 08:37:31;;;;;;;20.35;5.55;;;21.40;99.90;;;;;;5053136;28;20064;-82
2021/08/14 08:39:57;;;;;;;17.23;5.10;;;21.40;99.90;;;;;;5070602;28;20455;-80
2021/08/14 08:42:22;;;;;;;16.83;5.10;;;21.60;99.90;;;;;;5072862;28;20056;-79
2021/08/14 08:44:48;;;;;;;16.95;5.10;;;21.60;99.90;;;;;;5055946;28;20030;-79
2021/08/14 08:47:17;;;;;;;18.90;5.10;;;21.60;99.90;;;;;;5036270;28;20175;-79
2021/08/14 08:49:57;;;;;;;15.35;4.93;;;21.50;99.90;;;;;;5053008;28;20052;-79
2021/08/14 08:52:24;;;;;;;18.67;5.40;;;21.30;99.90;;;;;;5050119;28;20207;-79
2021/08/14 08:54:51;;;;;;;14.70;3.72;;;21.30;99.90;;;;;;5018685;28;20132;-79
2021/08/14 08:57:17;;;;;;;18.38;4.72;;;21.30;99.90;;;;;;5048351;28;20484;-79
2021/08/14 08:59:47;;;;;;;16.23;4.85;;;21.30;99.90;;;;;;5050695;28;20103;-79
2021/08/14 09:02:24;;;;;;;18.13;4.53;;;21.40;99.90;;;;;;5052991;28;20045;-79
2021/08/14 09:05:13;;;;;;;22.77;4.90;;;21.40;99.90;;;;;;5052385;28;20025;-79
2021/08/14 09:07:40;;;;;;;16.75;4.80;;;21.50;99.90;;;;;;5050974;28;20133;-79
2021/08/14 09:10:11;;;;;;;20.70;4.90;;;21.60;99.90;;;;;;5051269;28;20033;-79
2021/08/14 09:12:41;;;;;;;14.95;4.25;;;21.60;99.90;;;;;;5069087;28;20084;-78
2021/08/14 09:15:14;;;;;;;22.27;4.53;;;21.70;99.90;;;;;;5053651;28;20072;-79
2021/08/14 09:17:40;;;;;;;17.60;4.25;;;21.60;99.90;;;;;;5050883;28;20068;-79
2021/08/14 09:20:13;;;;;;;15.25;4.60;;;21.70;99.90;;;;;;5035034;28;20065;-79
2021/08/14 09:22:43;;;;;;;18.85;4.57;;;21.70;99.90;;;;;;5066462;28;20125;-79
2021/08/14 09:25:11;;;;;;;15.65;4.25;;;21.70;99.90;;;;;;5068135;28;20123;-78
2021/08/14 09:27:50;;;;;;;15.82;4.72;;;21.80;99.90;;;;;;5052371;28;20033;-79
2021/08/14 09:30:16;;;;;;;20.00;4.70;;;21.80;99.90;;;;;;5048882;28;20045;-79
2021/08/14 09:32:42;;;;;;;15.40;4.75;;;21.70;99.90;;;;;;5038759;28;20479;-79
2021/08/14 09:35:08;;;;;;;20.40;5.53;;;21.70;99.90;;;;;;5040652;28;20124;-78
2021/08/14 09:37:37;;;;;;;20.98;4.50;;;21.60;99.90;;;;;;5055953;28;20076;-79
2021/08/14 09:40:04;;;;;;;13.73;4.40;;;21.60;99.90;;;;;;5071541;28;20056;-80
2021/08/14 09:42:30;;;;;;;16.83;5.03;;;21.70;99.90;;;;;;5060057;28;20051;-80
2021/08/14 09:45:16;;;;;;;17.90;4.47;;;21.90;99.90;;;;;;5053322;28;20066;-79
2021/08/14 09:47:48;;;;;;;19.65;5.32;;;22.00;99.90;;;;;;5044697;28;20037;-80
2021/08/14 09:50:14;;;;;;;19.70;5.30;;;22.00;99.90;;;;;;5065622;28;20034;-80
2021/08/14 09:52:46;;;;;;;16.50;4.47;;;22.10;99.90;;;;;;5037413;28;20044;-80
2021/08/14 09:55:14;;;;;;;14.00;4.45;;;22.00;99.90;;;;;;5052883;28;20071;-80
2021/08/14 09:57:40;;;;;;;16.67;4.90;;;22.30;99.90;;;;;;5052878;28;20055;-80
2021/08/14 10:00:07;;;;;;;15.75;4.60;;;22.30;99.90;;;;;;5053130;28;20099;-80
2021/08/14 10:02:35;;;;;;;16.17;4.38;;;22.40;99.90;;;;;;5053104;28;20051;-80
2021/08/14 10:05:01;;;;;;;20.20;5.03;;;22.40;99.90;;;;;;5062248;28;20068;-80
2021/08/14 10:07:27;;;;;;;21.08;5.10;;;22.40;99.90;;;;;;5042170;28;20036;-80
2021/08/14 10:09:54;;;;;;;16.73;4.68;;;22.40;99.90;;;;;;5052032;28;20037;-80
2021/08/14 10:12:21;;;;;;;20.83;5.45;;;22.30;99.90;;;;;;5053064;28;20092;-80
2021/08/14 10:14:49;;;;;;;18.70;4.65;;;22.20;99.90;;;;;;5050852;28;20037;-80
2021/08/14 10:17:16;;;;;;;13.13;4.38;;;22.10;99.90;;;;;;5050960;28;20060;-80
2021/08/14 10:19:42;;;;;;;17.00;5.00;;;22.00;99.90;;;;;;5052057;28;20029;-80
2021/08/14 10:22:09;;;;;;;18.83;5.07;;;21.90;99.90;;;;;;5052443;28;20116;-80
2021/08/14 10:24:41;;;;;;;18.38;5.63;;;21.90;99.90;;;;;;5049596;28;20425;-80
2021/08/14 10:27:13;;;;;;;20.17;5.53;;;22.10;99.90;;;;;;5051393;28;20059;-80
2021/08/14 10:29:59;;;;;;;16.77;5.07;;;22.20;99.90;;;;;;5052226;28;20064;-80
2021/08/14 10:32:30;;;;;;;17.63;5.85;;;22.40;99.90;;;;;;5052533;28;20148;-80
2021/08/14 10:35:15;;;;;;;13.80;5.05;;;22.60;99.90;;;;;;5049264;28;20106;-80
2021/08/14 10:37:48;;;;;;;21.25;5.47;;;22.80;99.90;;;;;;5044628;28;20036;-80
2021/08/14 10:40:15;;;;;;;15.67;5.37;;;22.90;99.90;;;;;;5053416;28;20108;-80
2021/08/14 10:42:48;;;;;;;15.50;4.50;;;22.90;99.90;;;;;;5047413;28;20033;-80
2021/08/14 10:45:19;;;;;;;16.63;5.35;;;22.90;99.90;;;;;;5050134;28;20429;-80
2021/08/14 10:47:46;;;;;;;17.30;5.35;;;23.30;99.90;;;;;;5056180;28;20068;-80
2021/08/14 10:50:31;;;;;;;15.88;5.25;;;23.20;99.90;;;;;;5042423;28;20060;-79
2021/08/14 10:53:12;;;;;;;17.05;4.90;;;23.10;99.90;;;;;;5047658;28;20052;-79
2021/08/14 10:55:39;;;;;;;14.48;4.75;;;22.90;99.90;;;;;;5051322;28;20033;-80
2021/08/14 10:58:24;;;;;;;16.52;4.75;;;23.20;99.90;;;;;;5030480;28;20436;-80
2021/08/14 11:00:52;;;;;;;14.13;4.53;;;23.30;99.90;;;;;;5034574;28;20046;-80
2021/08/14 11:03:20;;;;;;;12.68;4.13;;;23.30;99.90;;;;;;5062569;28;20491;-80
2021/08/14 11:05:47;;;;;;;13.15;4.20;;;23.20;99.90;;;;;;5050030;28;20072;-80
2021/08/14 11:08:23;;;;;;;15.00;4.15;;;23.40;99.90;;;;;;5049856;28;20071;-80
2021/08/14 11:10:50;;;;;;;16.33;4.35;;;23.60;99.90;;;;;;5045305;28;20054;-80
2021/08/14 11:13:30;;;;;;;12.32;4.55;;;23.70;99.90;;;;;;5050689;28;20048;-80
2021/08/14 11:15:57;;;;;;;19.67;4.72;;;24.00;99.90;;;;;;5051735;28;20029;-80
2021/08/14 11:18:52;;;;;;;13.10;3.92;;;24.10;99.90;;;;;;5046845;28;20041;-80
2021/08/14 11:21:18;;;;;;;17.02;4.53;;;24.00;99.90;;;;;;5031313;28;20069;-81
2021/08/14 11:23:58;;;;;;;16.02;4.45;;;24.20;99.90;;;;;;5040086;28;20033;-80
2021/08/14 11:26:34;;;;;;;16.55;4.32;;;24.20;99.90;;;;;;5049536;28;20116;-80
2021/08/14 11:29:01;;;;;;;14.50;4.47;;;24.60;99.90;;;;;;5051004;28;20044;-80
2021/08/14 11:31:28;;;;;;;15.77;4.03;;;24.60;99.90;;;;;;5049524;28;20452;-80
2021/08/14 11:34:17;;;;;;;10.68;3.60;;;24.70;99.90;;;;;;5065947;28;20051;-80
2021/08/14 11:36:43;;;;;;;9.13;3.10;;;24.60;99.90;;;;;;5049893;28;20041;-80
2021/08/14 11:39:08;;;;;;;9.82;3.08;;;24.80;99.90;;;;;;5064815;28;20089;-81
2021/08/14 11:41:34;;;;;;;12.25;3.50;;;24.70;99.90;;;;;;5069326;28;20090;-81
2021/08/14 11:44:05;;;;;;;11.82;3.50;;;24.60;99.90;;;;;;5040788;28;20043;-81
2021/08/14 11:46:32;;;;;;;10.07;3.33;;;24.60;99.90;;;;;;5035286;28;20064;-80
2021/08/14 11:49:03;;;;;;;13.30;2.97;;;24.80;99.90;;;;;;5049402;28;20041;-81
2021/08/14 11:51:30;;;;;;;6.28;2.90;;;24.60;99.90;;;;;;5052574;28;20033;-78
2021/08/14 11:54:07;;;;;;;6.40;2.55;;;24.30;99.90;;;;;;5035830;28;20045;-81
2021/08/14 11:56:34;;;;;;;6.72;3.03;;;24.20;99.90;;;;;;5040906;28;20049;-80
2021/08/14 11:59:00;;;;;;;9.80;3.00;;;24.00;99.90;;;;;;5041991;28;20033;-79
2021/08/14 12:01:26;;;;;;;6.38;2.80;;;23.70;99.90;;;;;;5040799;28;20047;-78
2021/08/14 12:03:57;;;;;;;7.18;3.08;;;23.50;99.90;;;;;;5058809;28;20051;-78
2021/08/14 12:06:27;;;;;;;10.85;3.40;;;23.40;99.90;;;;;;5039637;28;20080;-75
2021/08/14 12:08:55;;;;;;;11.35;2.78;;;23.60;99.90;;;;;;5037874;28;20148;-79
2021/08/14 12:11:24;;;;;;;7.80;3.03;;;23.70;99.90;;;;;;5040230;28;20037;-82
2021/08/14 12:14:20;;;;;;;9.38;3.03;;;23.40;99.90;;;;;;5045982;28;20057;-77
2021/08/14 12:16:48;;;;;;;12.32;3.30;;;23.50;99.90;;;;;;5046080;28;20037;-79
2021/08/14 12:19:20;;;;;;;7.78;2.85;;;23.40;99.90;;;;;;5053992;28;20037;-81
2021/08/14 12:21:47;;;;;;;6.95;2.83;;;23.50;99.90;;;;;;5050313;28;20111;-80
2021/08/14 12:24:14;;;;;;;9.93;3.00;;;23.70;99.90;;;;;;5055847;28;20384;-80
2021/08/14 12:26:40;;;;;;;8.82;2.90;;;23.90;99.90;;;;;;5050244;28;20056;-79
2021/08/14 12:29:15;;;;;;;10.65;3.47;;;24.20;99.90;;;;;;5043716;28;20112;-80
2021/08/14 12:31:55;;;;;;;10.32;3.40;;;24.10;99.90;;;;;;5043487;28;20115;-78
2021/08/14 12:34:34;;;;;;;8.40;3.08;;;23.90;99.90;;;;;;5046684;28;20049;-80
2021/08/14 12:37:11;;;;;;;10.85;3.30;;;23.90;99.90;;;;;;5037932;28;20045;-79
2021/08/14 12:39:48;;;;;;;7.10;2.97;;;23.70;99.90;;;;;;5040191;28;20460;-78
2021/08/14 12:42:40;;;;;;;9.57;2.90;;;23.80;99.90;;;;;;5053977;28;20049;-78